sensor_id;sensor_type;location;lat;lon;timestamp;temperature;humidity
3208;DHT22;1616;52.394;9.756;2023-07-29T00:02:01;20.50;1.00
3208;DHT22;1616;52.394;9.756;2023-07-29T00:04:27;20.50;1.00
3208;DHT22;1616;52.394;9.756;2023-07-29T00:06:53;20.40;1.00
3208;DHT22;1616;52.394;9.756;2023-07-29T00:09:18;20.40;1.00
3208;DHT22;1616;52.394;9.756;2023-07-29T00:11:44;20.40;1.00
3208;DHT22;1616;52.394;9.756;2023-07-29T00:14:10;20.40;1.00
3208;DHT22;1616;52.394;9.756;2023-07-29T00:16:35;20.40;1.00
3208;DHT22;1616;52.394;9.756;2023-07-29T00:19:02;20.40;1.00
3208;DHT22;1616;52.394;9.756;2023-07-29T00:21:28;20.40;1.00
3208;DHT22;1616;52.394;9.756;2023-07-29T00:23:53;20.40;1.00
3208;DHT22;1616;52.394;9.756;2023-07-29T00:26:19;20.40;1.00
3208;DHT22;1616;52.394;9.756;2023-07-29T00:28:47;20.50;1.00
3208;DHT22;1616;52.394;9.756;2023-07-29T00:31:12;20.40;1.00
3208;DHT22;1616;52.394;9.756;2023-07-29T00:33:38;20.30;1.00
3208;DHT22;1616;52.394;9.756;2023-07-29T00:36:04;20.30;1.00
3208;DHT22;1616;52.394;9.756;2023-07-29T00:38:30;20.30;1.00
3208;DHT22;1616;52.394;9.756;2023-07-29T00:41:00;20.30;1.00
3208;DHT22;1616;52.394;9.756;2023-07-29T00:43:27;20.30;1.00
3208;DHT22;1616;52.394;9.756;2023-07-29T00:45:53;20.30;1.00
3208;DHT22;1616;52.394;9.756;2023-07-29T00:48:19;20.30;1.00
3208;DHT22;1616;52.394;9.756;2023-07-29T00:50:45;20.20;1.00
3208;DHT22;1616;52.394;9.756;2023-07-29T00:53:11;20.20;1.00
3208;DHT22;1616;52.394;9.756;2023-07-29T00:55:37;20.20;1.00
3208;DHT22;1616;52.394;9.756;2023-07-29T00:58:03;20.10;1.00
3208;DHT22;1616;52.394;9.756;2023-07-29T01:00:28;20.10;1.00
3208;DHT22;1616;52.394;9.756;2023-07-29T01:02:54;20.10;1.00
3208;DHT22;1616;52.394;9.756;2023-07-29T01:05:20;20.00;1.00
3208;DHT22;1616;52.394;9.756;2023-07-29T01:13:27;20.00;1.00
3208;DHT22;1616;52.394;9.756;2023-07-29T01:16:01;20.00;1.00
3208;DHT22;1616;52.394;9.756;2023-07-29T01:18:32;19.90;1.00
3208;DHT22;1616;52.394;9.756;2023-07-29T01:21:03;20.00;1.00
3208;DHT22;1616;52.394;9.756;2023-07-29T01:23:31;20.00;1.00
3208;DHT22;1616;52.394;9.756;2023-07-29T01:25:57;19.90;1.00
3208;DHT22;1616;52.394;9.756;2023-07-29T01:28:23;19.90;1.00
3208;DHT22;1616;52.394;9.756;2023-07-29T01:30:58;19.80;1.00
3208;DHT22;1616;52.394;9.756;2023-07-29T01:33:27;19.90;1.00
3208;DHT22;1616;52.394;9.756;2023-07-29T01:36:02;19.80;1.00
3208;DHT22;1616;52.394;9.756;2023-07-29T01:38:32;19.80;1.00
3208;DHT22;1616;52.394;9.756;2023-07-29T01:41:01;19.80;1.00
3208;DHT22;1616;52.394;9.756;2023-07-29T01:43:28;19.70;1.00
3208;DHT22;1616;52.394;9.756;2023-07-29T01:45:54;19.70;1.00
3208;DHT22;1616;52.394;9.756;2023-07-29T01:48:20;19.70;1.00
3208;DHT22;1616;52.394;9.756;2023-07-29T01:50:47;19.70;1.00
3208;DHT22;1616;52.394;9.756;2023-07-29T01:53:12;19.60;1.00
3208;DHT22;1616;52.394;9.756;2023-07-29T01:55:39;19.70;1.00
3208;DHT22;1616;52.394;9.756;2023-07-29T01:58:04;19.70;1.00
3208;DHT22;1616;52.394;9.756;2023-07-29T02:00:30;19.70;1.00
3208;DHT22;1616;52.394;9.756;2023-07-29T02:02:55;19.80;1.00
3208;DHT22;1616;52.394;9.756;2023-07-29T02:05:21;19.80;1.00
3208;DHT22;1616;52.394;9.756;2023-07-29T02:07:47;20.00;1.00
3208;DHT22;1616;52.394;9.756;2023-07-29T02:10:14;19.80;1.00
3208;DHT22;1616;52.394;9.756;2023-07-29T02:12:40;19.90;1.00
3208;DHT22;1616;52.394;9.756;2023-07-29T02:15:06;19.80;1.00
3208;DHT22;1616;52.394;9.756;2023-07-29T02:17:32;19.90;1.00
3208;DHT22;1616;52.394;9.756;2023-07-29T02:19:57;19.90;1.00
3208;DHT22;1616;52.394;9.756;2023-07-29T02:22:23;19.90;1.00
3208;DHT22;1616;52.394;9.756;2023-07-29T02:24:49;19.90;1.00
3208;DHT22;1616;52.394;9.756;2023-07-29T02:27:14;19.90;1.00
3208;DHT22;1616;52.394;9.756;2023-07-29T02:29:41;19.90;1.00
3208;DHT22;1616;52.394;9.756;2023-07-29T02:32:07;20.00;1.00
3208;DHT22;1616;52.394;9.756;2023-07-29T02:34:33;20.00;1.00
3208;DHT22;1616;52.394;9.756;2023-07-29T02:36:59;20.00;1.00
3208;DHT22;1616;52.394;9.756;2023-07-29T02:39:25;20.00;1.00
3208;DHT22;1616;52.394;9.756;2023-07-29T02:41:51;20.00;1.00
3208;DHT22;1616;52.394;9.756;2023-07-29T02:44:17;20.00;1.00
3208;DHT22;1616;52.394;9.756;2023-07-29T02:46:43;20.00;1.00
3208;DHT22;1616;52.394;9.756;2023-07-29T02:49:08;20.10;1.00
3208;DHT22;1616;52.394;9.756;2023-07-29T02:51:34;20.10;1.00
3208;DHT22;1616;52.394;9.756;2023-07-29T02:54:00;20.10;1.00
3208;DHT22;1616;52.394;9.756;2023-07-29T02:56:26;20.10;1.00
3208;DHT22;1616;52.394;9.756;2023-07-29T02:58:51;20.10;1.00
3208;DHT22;1616;52.394;9.756;2023-07-29T03:01:17;20.00;1.00
3208;DHT22;1616;52.394;9.756;2023-07-29T03:03:43;20.00;1.00
3208;DHT22;1616;52.394;9.756;2023-07-29T03:06:12;20.00;1.00
3208;DHT22;1616;52.394;9.756;2023-07-29T03:08:38;20.00;1.00
3208;DHT22;1616;52.394;9.756;2023-07-29T03:11:09;20.00;1.00
3208;DHT22;1616;52.394;9.756;2023-07-29T03:13:34;20.00;1.00
3208;DHT22;1616;52.394;9.756;2023-07-29T03:16:15;20.00;1.00
3208;DHT22;1616;52.394;9.756;2023-07-29T03:18:42;20.00;1.00
3208;DHT22;1616;52.394;9.756;2023-07-29T03:21:08;20.00;1.00
3208;DHT22;1616;52.394;9.756;2023-07-29T03:23:34;19.90;1.00
3208;DHT22;1616;52.394;9.756;2023-07-29T03:26:01;19.90;1.00
3208;DHT22;1616;52.394;9.756;2023-07-29T03:28:31;19.90;1.00
3208;DHT22;1616;52.394;9.756;2023-07-29T03:30:58;19.90;1.00
3208;DHT22;1616;52.394;9.756;2023-07-29T03:33:25;19.80;1.00
3208;DHT22;1616;52.394;9.756;2023-07-29T03:35:52;20.40;1.00
3208;DHT22;1616;52.394;9.756;2023-07-29T03:38:17;19.90;1.00
3208;DHT22;1616;52.394;9.756;2023-07-29T03:40:43;19.90;1.00
3208;DHT22;1616;52.394;9.756;2023-07-29T03:43:09;19.90;1.00
3208;DHT22;1616;52.394;9.756;2023-07-29T03:45:36;19.80;1.00
3208;DHT22;1616;52.394;9.756;2023-07-29T03:48:03;19.80;1.00
3208;DHT22;1616;52.394;9.756;2023-07-29T03:50:30;19.80;1.00
3208;DHT22;1616;52.394;9.756;2023-07-29T03:52:58;19.80;1.00
3208;DHT22;1616;52.394;9.756;2023-07-29T03:55:23;19.80;1.00
3208;DHT22;1616;52.394;9.756;2023-07-29T03:57:49;19.80;1.00
3208;DHT22;1616;52.394;9.756;2023-07-29T04:00:15;19.80;1.00
3208;DHT22;1616;52.394;9.756;2023-07-29T04:02:41;19.90;1.00
3208;DHT22;1616;52.394;9.756;2023-07-29T04:05:07;19.90;1.00
3208;DHT22;1616;52.394;9.756;2023-07-29T04:07:34;19.90;1.00
3208;DHT22;1616;52.394;9.756;2023-07-29T04:10:01;20.00;1.00
3208;DHT22;1616;52.394;9.756;2023-07-29T04:12:28;20.70;1.00
3208;DHT22;1616;52.394;9.756;2023-07-29T04:14:53;20.00;1.00
3208;DHT22;1616;52.394;9.756;2023-07-29T04:17:19;19.90;1.00
3208;DHT22;1616;52.394;9.756;2023-07-29T04:19:45;19.90;1.00
3208;DHT22;1616;52.394;9.756;2023-07-29T04:22:10;20.00;1.00
3208;DHT22;1616;52.394;9.756;2023-07-29T04:24:36;20.00;1.00
3208;DHT22;1616;52.394;9.756;2023-07-29T04:27:01;20.00;1.00
3208;DHT22;1616;52.394;9.756;2023-07-29T04:29:27;19.90;1.00
3208;DHT22;1616;52.394;9.756;2023-07-29T04:31:53;19.80;1.00
3208;DHT22;1616;52.394;9.756;2023-07-29T04:34:19;19.70;1.00
3208;DHT22;1616;52.394;9.756;2023-07-29T04:36:48;19.70;1.00
3208;DHT22;1616;52.394;9.756;2023-07-29T04:39:14;19.60;1.00
3208;DHT22;1616;52.394;9.756;2023-07-29T04:41:40;19.60;1.00
3208;DHT22;1616;52.394;9.756;2023-07-29T04:44:06;19.70;1.00
3208;DHT22;1616;52.394;9.756;2023-07-29T04:46:32;19.80;1.00
3208;DHT22;1616;52.394;9.756;2023-07-29T04:48:58;19.80;1.00
3208;DHT22;1616;52.394;9.756;2023-07-29T04:51:24;19.80;1.00
3208;DHT22;1616;52.394;9.756;2023-07-29T04:53:50;19.80;1.00
3208;DHT22;1616;52.394;9.756;2023-07-29T04:56:16;19.80;1.00
3208;DHT22;1616;52.394;9.756;2023-07-29T04:58:42;19.80;1.00
3208;DHT22;1616;52.394;9.756;2023-07-29T05:01:07;19.80;1.00
3208;DHT22;1616;52.394;9.756;2023-07-29T05:03:33;19.80;1.00
3208;DHT22;1616;52.394;9.756;2023-07-29T05:05:59;19.80;1.00
3208;DHT22;1616;52.394;9.756;2023-07-29T05:08:28;19.60;1.00
3208;DHT22;1616;52.394;9.756;2023-07-29T05:10:54;19.60;1.00
3208;DHT22;1616;52.394;9.756;2023-07-29T05:13:21;19.50;1.00
3208;DHT22;1616;52.394;9.756;2023-07-29T05:15:48;19.50;1.00
3208;DHT22;1616;52.394;9.756;2023-07-29T05:18:15;19.40;1.00
3208;DHT22;1616;52.394;9.756;2023-07-29T05:20:41;19.40;1.00
3208;DHT22;1616;52.394;9.756;2023-07-29T05:23:07;19.30;1.00
3208;DHT22;1616;52.394;9.756;2023-07-29T05:25:32;19.20;1.00
3208;DHT22;1616;52.394;9.756;2023-07-29T05:28:00;19.20;1.00
3208;DHT22;1616;52.394;9.756;2023-07-29T05:30:26;19.10;1.00
3208;DHT22;1616;52.394;9.756;2023-07-29T05:32:56;19.10;1.00
3208;DHT22;1616;52.394;9.756;2023-07-29T05:35:22;19.10;1.00
3208;DHT22;1616;52.394;9.756;2023-07-29T05:37:48;19.20;1.00
3208;DHT22;1616;52.394;9.756;2023-07-29T05:40:13;19.20;1.00
3208;DHT22;1616;52.394;9.756;2023-07-29T05:42:39;19.40;1.00
3208;DHT22;1616;52.394;9.756;2023-07-29T05:45:05;19.30;1.00
3208;DHT22;1616;52.394;9.756;2023-07-29T05:47:31;19.40;1.00
3208;DHT22;1616;52.394;9.756;2023-07-29T05:49:57;19.50;1.00
3208;DHT22;1616;52.394;9.756;2023-07-29T05:52:22;19.60;1.00
3208;DHT22;1616;52.394;9.756;2023-07-29T05:54:48;19.60;1.00
3208;DHT22;1616;52.394;9.756;2023-07-29T05:57:14;19.70;1.00
3208;DHT22;1616;52.394;9.756;2023-07-29T05:59:40;19.80;1.00
3208;DHT22;1616;52.394;9.756;2023-07-29T06:02:06;19.90;1.00
3208;DHT22;1616;52.394;9.756;2023-07-29T06:04:31;20.00;1.00
3208;DHT22;1616;52.394;9.756;2023-07-29T06:06:57;20.10;1.00
3208;DHT22;1616;52.394;9.756;2023-07-29T06:09:23;21.00;1.00
3208;DHT22;1616;52.394;9.756;2023-07-29T06:11:49;20.20;1.00
3208;DHT22;1616;52.394;9.756;2023-07-29T06:14:14;20.30;1.00
3208;DHT22;1616;52.394;9.756;2023-07-29T06:16:40;20.30;1.00
3208;DHT22;1616;52.394;9.756;2023-07-29T06:19:08;20.20;1.00
3208;DHT22;1616;52.394;9.756;2023-07-29T06:21:35;20.20;1.00
3208;DHT22;1616;52.394;9.756;2023-07-29T06:24:01;20.10;1.00
3208;DHT22;1616;52.394;9.756;2023-07-29T06:26:27;20.10;1.00
3208;DHT22;1616;52.394;9.756;2023-07-29T06:28:53;20.00;1.00
3208;DHT22;1616;52.394;9.756;2023-07-29T06:31:18;20.00;1.00
3208;DHT22;1616;52.394;9.756;2023-07-29T06:33:44;20.00;1.00
3208;DHT22;1616;52.394;9.756;2023-07-29T06:36:09;19.90;1.00
3208;DHT22;1616;52.394;9.756;2023-07-29T06:38:35;19.90;1.00
3208;DHT22;1616;52.394;9.756;2023-07-29T06:41:01;19.90;1.00
3208;DHT22;1616;52.394;9.756;2023-07-29T06:43:26;20.00;1.00
3208;DHT22;1616;52.394;9.756;2023-07-29T06:45:52;20.10;1.00
3208;DHT22;1616;52.394;9.756;2023-07-29T06:48:18;20.20;1.00
3208;DHT22;1616;52.394;9.756;2023-07-29T06:50:45;20.30;1.00
3208;DHT22;1616;52.394;9.756;2023-07-29T06:53:11;20.50;1.00
3208;DHT22;1616;52.394;9.756;2023-07-29T06:55:37;20.80;1.00
3208;DHT22;1616;52.394;9.756;2023-07-29T06:58:03;21.30;1.00
3208;DHT22;1616;52.394;9.756;2023-07-29T07:00:28;22.00;1.00
3208;DHT22;1616;52.394;9.756;2023-07-29T07:02:54;22.40;1.00
3208;DHT22;1616;52.394;9.756;2023-07-29T07:05:19;22.80;1.00
3208;DHT22;1616;52.394;9.756;2023-07-29T07:07:45;22.90;1.00
3208;DHT22;1616;52.394;9.756;2023-07-29T07:10:11;23.00;1.00
3208;DHT22;1616;52.394;9.756;2023-07-29T07:12:36;23.10;1.00
3208;DHT22;1616;52.394;9.756;2023-07-29T07:15:02;23.20;1.00
3208;DHT22;1616;52.394;9.756;2023-07-29T07:17:28;23.20;1.00
3208;DHT22;1616;52.394;9.756;2023-07-29T07:19:54;23.20;1.00
3208;DHT22;1616;52.394;9.756;2023-07-29T07:22:19;23.20;1.00
3208;DHT22;1616;52.394;9.756;2023-07-29T07:24:45;23.20;1.00
3208;DHT22;1616;52.394;9.756;2023-07-29T07:27:11;23.10;1.00
3208;DHT22;1616;52.394;9.756;2023-07-29T07:29:36;23.10;1.00
3208;DHT22;1616;52.394;9.756;2023-07-29T07:32:03;23.10;1.00
3208;DHT22;1616;52.394;9.756;2023-07-29T07:34:29;23.10;1.00
3208;DHT22;1616;52.394;9.756;2023-07-29T07:36:54;23.10;1.00
3208;DHT22;1616;52.394;9.756;2023-07-29T07:39:20;23.00;1.00
3208;DHT22;1616;52.394;9.756;2023-07-29T07:41:46;23.10;1.00
3208;DHT22;1616;52.394;9.756;2023-07-29T07:44:12;23.00;1.00
3208;DHT22;1616;52.394;9.756;2023-07-29T07:46:43;23.00;1.00
3208;DHT22;1616;52.394;9.756;2023-07-29T07:49:08;23.00;1.00
3208;DHT22;1616;52.394;9.756;2023-07-29T07:51:34;23.10;1.00
3208;DHT22;1616;52.394;9.756;2023-07-29T07:54:00;23.10;1.00
3208;DHT22;1616;52.394;9.756;2023-07-29T07:56:26;23.30;1.00
3208;DHT22;1616;52.394;9.756;2023-07-29T07:58:51;23.50;1.00
3208;DHT22;1616;52.394;9.756;2023-07-29T08:01:17;23.70;1.00
3208;DHT22;1616;52.394;9.756;2023-07-29T08:03:43;23.90;1.00
3208;DHT22;1616;52.394;9.756;2023-07-29T08:06:09;24.00;1.00
3208;DHT22;1616;52.394;9.756;2023-07-29T08:08:34;24.10;1.00
3208;DHT22;1616;52.394;9.756;2023-07-29T08:11:00;24.20;1.00
3208;DHT22;1616;52.394;9.756;2023-07-29T08:13:26;24.30;1.00
3208;DHT22;1616;52.394;9.756;2023-07-29T08:15:52;24.40;1.00
3208;DHT22;1616;52.394;9.756;2023-07-29T08:18:18;24.50;1.00
3208;DHT22;1616;52.394;9.756;2023-07-29T08:20:58;24.50;1.00
3208;DHT22;1616;52.394;9.756;2023-07-29T08:23:25;24.60;1.00
3208;DHT22;1616;52.394;9.756;2023-07-29T08:25:55;24.60;1.00
3208;DHT22;1616;52.394;9.756;2023-07-29T08:28:22;24.70;1.00
3208;DHT22;1616;52.394;9.756;2023-07-29T08:30:48;24.80;1.00
3208;DHT22;1616;52.394;9.756;2023-07-29T08:33:14;24.90;1.00
3208;DHT22;1616;52.394;9.756;2023-07-29T08:35:41;25.00;1.00
3208;DHT22;1616;52.394;9.756;2023-07-29T08:38:07;25.10;1.00
3208;DHT22;1616;52.394;9.756;2023-07-29T08:40:34;25.00;1.00
3208;DHT22;1616;52.394;9.756;2023-07-29T08:43:04;24.90;1.00
3208;DHT22;1616;52.394;9.756;2023-07-29T08:45:35;24.70;1.00
3208;DHT22;1616;52.394;9.756;2023-07-29T08:48:03;24.50;1.00
3208;DHT22;1616;52.394;9.756;2023-07-29T08:50:32;24.30;1.00
3208;DHT22;1616;52.394;9.756;2023-07-29T08:52:59;24.20;1.00
3208;DHT22;1616;52.394;9.756;2023-07-29T08:55:26;24.10;1.00
3208;DHT22;1616;52.394;9.756;2023-07-29T08:57:52;24.00;1.00
3208;DHT22;1616;52.394;9.756;2023-07-29T09:00:19;24.00;1.00
3208;DHT22;1616;52.394;9.756;2023-07-29T09:02:45;24.00;1.00
3208;DHT22;1616;52.394;9.756;2023-07-29T09:05:10;24.00;1.00
3208;DHT22;1616;52.394;9.756;2023-07-29T09:07:36;24.00;1.00
3208;DHT22;1616;52.394;9.756;2023-07-29T09:10:02;24.00;1.00
3208;DHT22;1616;52.394;9.756;2023-07-29T09:12:28;24.10;1.00
3208;DHT22;1616;52.394;9.756;2023-07-29T09:14:54;24.20;1.00
3208;DHT22;1616;52.394;9.756;2023-07-29T09:17:22;24.20;1.00
3208;DHT22;1616;52.394;9.756;2023-07-29T09:19:51;25.30;1.00
3208;DHT22;1616;52.394;9.756;2023-07-29T09:22:20;24.40;1.00
3208;DHT22;1616;52.394;9.756;2023-07-29T09:24:47;24.70;1.00
3208;DHT22;1616;52.394;9.756;2023-07-29T09:27:28;25.10;1.00
3208;DHT22;1616;52.394;9.756;2023-07-29T09:29:57;25.90;1.00
3208;DHT22;1616;52.394;9.756;2023-07-29T09:32:24;26.60;1.00
3208;DHT22;1616;52.394;9.756;2023-07-29T09:34:51;27.00;1.00
3208;DHT22;1616;52.394;9.756;2023-07-29T09:37:23;27.30;1.00
3208;DHT22;1616;52.394;9.756;2023-07-29T09:39:49;27.50;1.00
3208;DHT22;1616;52.394;9.756;2023-07-29T09:42:20;27.70;1.00
3208;DHT22;1616;52.394;9.756;2023-07-29T09:44:50;28.10;1.00
3208;DHT22;1616;52.394;9.756;2023-07-29T09:47:23;28.20;1.00
3208;DHT22;1616;52.394;9.756;2023-07-29T09:49:50;28.10;1.00
3208;DHT22;1616;52.394;9.756;2023-07-29T09:52:20;27.70;1.00
3208;DHT22;1616;52.394;9.756;2023-07-29T09:54:47;27.30;1.00
3208;DHT22;1616;52.394;9.756;2023-07-29T09:57:18;26.80;1.00
3208;DHT22;1616;52.394;9.756;2023-07-29T09:59:54;26.40;1.00
3208;DHT22;1616;52.394;9.756;2023-07-29T10:02:20;26.20;1.00
3208;DHT22;1616;52.394;9.756;2023-07-29T10:04:47;26.20;1.00
3208;DHT22;1616;52.394;9.756;2023-07-29T10:07:12;26.30;1.00
3208;DHT22;1616;52.394;9.756;2023-07-29T10:09:40;26.60;1.00
3208;DHT22;1616;52.394;9.756;2023-07-29T10:12:09;27.00;1.00
3208;DHT22;1616;52.394;9.756;2023-07-29T10:14:35;27.40;1.00
3208;DHT22;1616;52.394;9.756;2023-07-29T10:17:02;28.00;1.00
3208;DHT22;1616;52.394;9.756;2023-07-29T10:19:29;28.50;1.00
3208;DHT22;1616;52.394;9.756;2023-07-29T10:21:58;29.00;1.00
3208;DHT22;1616;52.394;9.756;2023-07-29T10:24:30;29.30;1.00
3208;DHT22;1616;52.394;9.756;2023-07-29T10:27:01;29.60;1.00
3208;DHT22;1616;52.394;9.756;2023-07-29T10:29:38;29.90;1.00
3208;DHT22;1616;52.394;9.756;2023-07-29T10:32:11;30.40;1.00
3208;DHT22;1616;52.394;9.756;2023-07-29T10:34:37;31.00;1.00
3208;DHT22;1616;52.394;9.756;2023-07-29T10:37:03;31.80;1.00
3208;DHT22;1616;52.394;9.756;2023-07-29T10:39:38;32.60;1.00
3208;DHT22;1616;52.394;9.756;2023-07-29T10:42:06;32.80;1.00
3208;DHT22;1616;52.394;9.756;2023-07-29T10:47:27;32.60;1.00
3208;DHT22;1616;52.394;9.756;2023-07-29T10:49:57;32.30;1.00
3208;DHT22;1616;52.394;9.756;2023-07-29T10:55:02;31.20;1.00
3208;DHT22;1616;52.394;9.756;2023-07-29T10:57:37;30.60;1.00
3208;DHT22;1616;52.394;9.756;2023-07-29T11:00:04;31.50;1.00
3208;DHT22;1616;52.394;9.756;2023-07-29T11:02:32;29.70;1.00
3208;DHT22;1616;52.394;9.756;2023-07-29T11:04:58;29.40;1.00
3208;DHT22;1616;52.394;9.756;2023-07-29T11:07:26;29.30;1.00
3208;DHT22;1616;52.394;9.756;2023-07-29T11:10:03;29.30;1.00
3208;DHT22;1616;52.394;9.756;2023-07-29T11:12:41;29.40;1.00
3208;DHT22;1616;52.394;9.756;2023-07-29T11:20:06;30.40;1.00
3208;DHT22;1616;52.394;9.756;2023-07-29T11:22:36;30.70;1.00
3208;DHT22;1616;52.394;9.756;2023-07-29T11:25:02;31.10;1.00
3208;DHT22;1616;52.394;9.756;2023-07-29T11:27:28;31.60;1.00
3208;DHT22;1616;52.394;9.756;2023-07-29T11:30:01;32.20;1.00
3208;DHT22;1616;52.394;9.756;2023-07-29T11:32:27;32.60;1.00
3208;DHT22;1616;52.394;9.756;2023-07-29T11:34:53;32.50;1.00
3208;DHT22;1616;52.394;9.756;2023-07-29T11:37:19;32.40;1.00
3208;DHT22;1616;52.394;9.756;2023-07-29T11:39:46;32.70;1.00
3208;DHT22;1616;52.394;9.756;2023-07-29T11:42:15;33.10;1.00
3208;DHT22;1616;52.394;9.756;2023-07-29T11:44:42;32.80;1.00
3208;DHT22;1616;52.394;9.756;2023-07-29T11:47:09;32.70;1.00
3208;DHT22;1616;52.394;9.756;2023-07-29T11:49:35;32.80;1.00
3208;DHT22;1616;52.394;9.756;2023-07-29T11:52:03;32.90;1.00
3208;DHT22;1616;52.394;9.756;2023-07-29T11:54:29;33.00;1.00
3208;DHT22;1616;52.394;9.756;2023-07-29T11:56:56;33.30;1.00
3208;DHT22;1616;52.394;9.756;2023-07-29T11:59:22;33.70;1.00
3208;DHT22;1616;52.394;9.756;2023-07-29T12:01:47;33.90;1.00
3208;DHT22;1616;52.394;9.756;2023-07-29T12:04:13;33.40;1.00
3208;DHT22;1616;52.394;9.756;2023-07-29T12:06:39;33.00;1.00
3208;DHT22;1616;52.394;9.756;2023-07-29T12:09:05;32.50;1.00
3208;DHT22;1616;52.394;9.756;2023-07-29T12:11:32;32.50;1.00
3208;DHT22;1616;52.394;9.756;2023-07-29T12:13:59;32.60;1.00
3208;DHT22;1616;52.394;9.756;2023-07-29T12:16:26;33.10;1.00
3208;DHT22;1616;52.394;9.756;2023-07-29T12:18:52;33.30;1.00
3208;DHT22;1616;52.394;9.756;2023-07-29T12:21:21;33.20;1.00
3208;DHT22;1616;52.394;9.756;2023-07-29T12:23:47;32.80;1.00
3208;DHT22;1616;52.394;9.756;2023-07-29T12:26:15;32.10;1.00
3208;DHT22;1616;52.394;9.756;2023-07-29T12:28:46;31.80;1.00
3208;DHT22;1616;52.394;9.756;2023-07-29T12:31:11;31.80;1.00
3208;DHT22;1616;52.394;9.756;2023-07-29T12:33:37;32.00;1.00
3208;DHT22;1616;52.394;9.756;2023-07-29T12:36:05;32.00;1.00
3208;DHT22;1616;52.394;9.756;2023-07-29T12:38:31;31.90;1.00
3208;DHT22;1616;52.394;9.756;2023-07-29T12:40:56;32.00;1.00
3208;DHT22;1616;52.394;9.756;2023-07-29T12:43:22;31.90;1.00
3208;DHT22;1616;52.394;9.756;2023-07-29T12:45:52;31.80;1.00
3208;DHT22;1616;52.394;9.756;2023-07-29T12:48:17;31.50;1.00
3208;DHT22;1616;52.394;9.756;2023-07-29T12:50:43;33.00;1.00
3208;DHT22;1616;52.394;9.756;2023-07-29T12:53:09;30.90;1.00
3208;DHT22;1616;52.394;9.756;2023-07-29T12:55:36;30.60;1.00
3208;DHT22;1616;52.394;9.756;2023-07-29T12:58:02;30.30;1.00
3208;DHT22;1616;52.394;9.756;2023-07-29T13:00:29;30.00;1.00
3208;DHT22;1616;52.394;9.756;2023-07-29T13:02:55;29.70;1.00
3208;DHT22;1616;52.394;9.756;2023-07-29T13:05:21;29.70;1.00
3208;DHT22;1616;52.394;9.756;2023-07-29T13:07:46;29.90;1.00
3208;DHT22;1616;52.394;9.756;2023-07-29T13:10:12;29.80;1.00
3208;DHT22;1616;52.394;9.756;2023-07-29T13:12:39;29.80;1.00
3208;DHT22;1616;52.394;9.756;2023-07-29T13:15:05;29.80;1.00
3208;DHT22;1616;52.394;9.756;2023-07-29T13:17:32;29.80;1.00
3208;DHT22;1616;52.394;9.756;2023-07-29T13:19:58;29.80;1.00
3208;DHT22;1616;52.394;9.756;2023-07-29T13:22:24;29.80;1.00
3208;DHT22;1616;52.394;9.756;2023-07-29T13:24:49;30.00;1.00
3208;DHT22;1616;52.394;9.756;2023-07-29T13:27:15;30.30;1.00
3208;DHT22;1616;52.394;9.756;2023-07-29T13:29:40;30.50;1.00
3208;DHT22;1616;52.394;9.756;2023-07-29T13:32:07;30.60;1.00
3208;DHT22;1616;52.394;9.756;2023-07-29T13:34:33;30.70;1.00
3208;DHT22;1616;52.394;9.756;2023-07-29T13:37:00;30.50;1.00
3208;DHT22;1616;52.394;9.756;2023-07-29T13:39:25;30.40;1.00
3208;DHT22;1616;52.394;9.756;2023-07-29T13:41:51;30.20;1.00
3208;DHT22;1616;52.394;9.756;2023-07-29T13:44:17;30.20;1.00
3208;DHT22;1616;52.394;9.756;2023-07-29T13:46:43;30.30;1.00
3208;DHT22;1616;52.394;9.756;2023-07-29T13:49:09;30.30;1.00
3208;DHT22;1616;52.394;9.756;2023-07-29T13:51:35;30.30;1.00
3208;DHT22;1616;52.394;9.756;2023-07-29T13:54:00;30.30;1.00
3208;DHT22;1616;52.394;9.756;2023-07-29T13:56:27;30.20;1.00
3208;DHT22;1616;52.394;9.756;2023-07-29T13:58:52;30.10;1.00
3208;DHT22;1616;52.394;9.756;2023-07-29T14:01:18;29.90;1.00
3208;DHT22;1616;52.394;9.756;2023-07-29T14:03:43;29.70;1.00
3208;DHT22;1616;52.394;9.756;2023-07-29T14:06:10;29.70;1.00
3208;DHT22;1616;52.394;9.756;2023-07-29T14:08:37;29.70;1.00
3208;DHT22;1616;52.394;9.756;2023-07-29T14:11:04;29.80;1.00
3208;DHT22;1616;52.394;9.756;2023-07-29T14:13:29;29.90;1.00
3208;DHT22;1616;52.394;9.756;2023-07-29T14:15:55;30.00;1.00
3208;DHT22;1616;52.394;9.756;2023-07-29T14:18:22;30.00;1.00
3208;DHT22;1616;52.394;9.756;2023-07-29T14:20:48;30.00;1.00
3208;DHT22;1616;52.394;9.756;2023-07-29T14:23:16;30.00;1.00
3208;DHT22;1616;52.394;9.756;2023-07-29T14:25:42;30.00;1.00
3208;DHT22;1616;52.394;9.756;2023-07-29T14:28:07;29.90;1.00
3208;DHT22;1616;52.394;9.756;2023-07-29T14:30:33;29.70;1.00
3208;DHT22;1616;52.394;9.756;2023-07-29T14:33:01;29.50;1.00
3208;DHT22;1616;52.394;9.756;2023-07-29T14:35:26;29.40;1.00
3208;DHT22;1616;52.394;9.756;2023-07-29T14:37:52;29.30;1.00
3208;DHT22;1616;52.394;9.756;2023-07-29T14:40:19;29.30;1.00
3208;DHT22;1616;52.394;9.756;2023-07-29T14:42:44;29.30;1.00
3208;DHT22;1616;52.394;9.756;2023-07-29T14:45:10;29.20;1.00
3208;DHT22;1616;52.394;9.756;2023-07-29T14:47:36;29.10;1.00
3208;DHT22;1616;52.394;9.756;2023-07-29T14:50:03;29.10;1.00
3208;DHT22;1616;52.394;9.756;2023-07-29T14:52:28;29.10;1.00
3208;DHT22;1616;52.394;9.756;2023-07-29T14:54:54;29.20;1.00
3208;DHT22;1616;52.394;9.756;2023-07-29T14:57:20;29.10;1.00
3208;DHT22;1616;52.394;9.756;2023-07-29T14:59:46;29.00;1.00
3208;DHT22;1616;52.394;9.756;2023-07-29T15:02:12;29.00;1.00
3208;DHT22;1616;52.394;9.756;2023-07-29T15:04:37;28.90;1.00
3208;DHT22;1616;52.394;9.756;2023-07-29T15:07:03;28.90;1.00
3208;DHT22;1616;52.394;9.756;2023-07-29T15:09:29;28.80;1.00
3208;DHT22;1616;52.394;9.756;2023-07-29T15:11:54;28.80;1.00
3208;DHT22;1616;52.394;9.756;2023-07-29T15:14:20;28.70;1.00
3208;DHT22;1616;52.394;9.756;2023-07-29T15:16:46;28.60;1.00
3208;DHT22;1616;52.394;9.756;2023-07-29T15:19:11;28.50;1.00
3208;DHT22;1616;52.394;9.756;2023-07-29T15:21:37;28.40;1.00
3208;DHT22;1616;52.394;9.756;2023-07-29T15:24:03;28.30;1.00
3208;DHT22;1616;52.394;9.756;2023-07-29T15:26:29;28.20;1.00
3208;DHT22;1616;52.394;9.756;2023-07-29T15:28:55;28.00;1.00
3208;DHT22;1616;52.394;9.756;2023-07-29T15:31:20;27.90;1.00
3208;DHT22;1616;52.394;9.756;2023-07-29T15:33:46;27.90;1.00
3208;DHT22;1616;52.394;9.756;2023-07-29T15:36:11;27.80;1.00
3208;DHT22;1616;52.394;9.756;2023-07-29T15:38:37;27.70;1.00
3208;DHT22;1616;52.394;9.756;2023-07-29T15:41:04;27.60;1.00
3208;DHT22;1616;52.394;9.756;2023-07-29T15:43:30;27.50;1.00
3208;DHT22;1616;52.394;9.756;2023-07-29T15:45:56;27.40;1.00
3208;DHT22;1616;52.394;9.756;2023-07-29T15:48:23;27.30;1.00
3208;DHT22;1616;52.394;9.756;2023-07-29T15:50:49;27.20;1.00
3208;DHT22;1616;52.394;9.756;2023-07-29T15:53:14;27.20;1.00
3208;DHT22;1616;52.394;9.756;2023-07-29T15:55:40;26.90;1.00
3208;DHT22;1616;52.394;9.756;2023-07-29T15:58:05;26.90;1.00
3208;DHT22;1616;52.394;9.756;2023-07-29T16:00:34;26.90;1.00
3208;DHT22;1616;52.394;9.756;2023-07-29T16:03:00;27.00;1.00
3208;DHT22;1616;52.394;9.756;2023-07-29T16:05:25;28.50;1.00
3208;DHT22;1616;52.394;9.756;2023-07-29T16:07:51;27.20;1.00
3208;DHT22;1616;52.394;9.756;2023-07-29T16:10:18;27.30;1.00
3208;DHT22;1616;52.394;9.756;2023-07-29T16:12:44;27.30;1.00
3208;DHT22;1616;52.394;9.756;2023-07-29T16:15:10;27.20;1.00
3208;DHT22;1616;52.394;9.756;2023-07-29T16:17:36;27.10;1.00
3208;DHT22;1616;52.394;9.756;2023-07-29T16:20:03;27.00;1.00
3208;DHT22;1616;52.394;9.756;2023-07-29T16:22:29;26.90;1.00
3208;DHT22;1616;52.394;9.756;2023-07-29T16:24:55;26.90;1.00
3208;DHT22;1616;52.394;9.756;2023-07-29T16:27:21;27.00;1.00
3208;DHT22;1616;52.394;9.756;2023-07-29T16:29:48;26.90;1.00